sensor_id;sensor_type;location;lat;lon;timestamp;pressure;altitude;pressure_sealevel;temperature;humidity
37066;BME280;22981;43.080;25.550;2023-04-01T00:01:59;98636.02;;;7.18;67.14
37066;BME280;22981;43.080;25.550;2023-04-01T00:04:26;98633.88;;;7.18;67.20
37066;BME280;22981;43.080;25.550;2023-04-01T00:06:54;98629.22;;;7.22;67.19
37066;BME280;22981;43.080;25.550;2023-04-01T00:09:21;98622.80;;;7.21;67.19
37066;BME280;22981;43.080;25.550;2023-04-01T00:11:49;98620.86;;;7.19;67.16
37066;BME280;22981;43.080;25.550;2023-04-01T00:14:17;98623.97;;;7.16;67.23
37066;BME280;22981;43.080;25.550;2023-04-01T00:16:44;98622.70;;;7.18;67.28
37066;BME280;22981;43.080;25.550;2023-04-01T00:19:13;98628.13;;;7.21;67.23
37066;BME280;22981;43.080;25.550;2023-04-01T00:21:41;98621.84;;;7.24;67.33
37066;BME280;22981;43.080;25.550;2023-04-01T00:24:09;98621.84;;;7.24;67.25
37066;BME280;22981;43.080;25.550;2023-04-01T00:26:37;98624.27;;;7.17;67.29
37066;BME280;22981;43.080;25.550;2023-04-01T00:29:04;98629.05;;;7.08;67.47
37066;BME280;22981;43.080;25.550;2023-04-01T00:31:32;98622.82;;;7.05;67.60
37066;BME280;22981;43.080;25.550;2023-04-01T00:33:59;98612.47;;;7.06;67.55
37066;BME280;22981;43.080;25.550;2023-04-01T00:36:27;98610.03;;;7.05;67.57
37066;BME280;22981;43.080;25.550;2023-04-01T00:38:54;98602.80;;;7.02;67.57
37066;BME280;22981;43.080;25.550;2023-04-01T00:41:22;98602.05;;;7.05;67.61
37066;BME280;22981;43.080;25.550;2023-04-01T00:43:51;98596.88;;;7.10;67.54
37066;BME280;22981;43.080;25.550;2023-04-01T00:46:19;98595.12;;;7.13;67.42
37066;BME280;22981;43.080;25.550;2023-04-01T00:48:49;98592.69;;;7.11;67.44
37066;BME280;22981;43.080;25.550;2023-04-01T00:51:23;98591.42;;;7.14;67.46
37066;BME280;22981;43.080;25.550;2023-04-01T00:53:50;98587.43;;;7.14;67.42
37066;BME280;22981;43.080;25.550;2023-04-01T00:56:21;98586.33;;;7.12;67.50
37066;BME280;22981;43.080;25.550;2023-04-01T00:58:51;98582.77;;;7.09;67.48
37066;BME280;22981;43.080;25.550;2023-04-01T01:01:21;98577.52;;;7.02;67.61
37066;BME280;22981;43.080;25.550;2023-04-01T01:03:49;98572.69;;;7.02;67.70
37066;BME280;22981;43.080;25.550;2023-04-01T01:06:46;98568.63;;;6.99;67.69
37066;BME280;22981;43.080;25.550;2023-04-01T01:18:09;98567.80;;;6.90;67.74
37066;BME280;22981;43.080;25.550;2023-04-01T01:26:09;98560.94;;;6.75;67.86
37066;BME280;22981;43.080;25.550;2023-04-01T01:31:58;98564.34;;;6.73;68.07
37066;BME280;22981;43.080;25.550;2023-04-01T01:37:09;98551.24;;;6.72;68.00
37066;BME280;22981;43.080;25.550;2023-04-01T01:39:38;98546.25;;;6.73;68.10
37066;BME280;22981;43.080;25.550;2023-04-01T01:42:09;98548.58;;;6.72;68.11
37066;BME280;22981;43.080;25.550;2023-04-01T01:44:38;98546.96;;;6.71;68.24
37066;BME280;22981;43.080;25.550;2023-04-01T01:47:06;98544.38;;;6.64;68.29
37066;BME280;22981;43.080;25.550;2023-04-01T01:49:36;98545.35;;;6.54;68.47
37066;BME280;22981;43.080;25.550;2023-04-01T01:52:04;98546.42;;;6.46;68.68
37066;BME280;22981;43.080;25.550;2023-04-01T01:54:31;98549.41;;;6.47;68.78
37066;BME280;22981;43.080;25.550;2023-04-01T01:57:09;98551.61;;;6.50;68.75
37066;BME280;22981;43.080;25.550;2023-04-01T01:59:35;98542.66;;;6.45;68.74
37066;BME280;22981;43.080;25.550;2023-04-01T02:02:04;98546.06;;;6.43;68.79
37066;BME280;22981;43.080;25.550;2023-04-01T02:04:36;98535.63;;;6.41;68.87
37066;BME280;22981;43.080;25.550;2023-04-01T02:07:11;98544.12;;;6.41;68.84
37066;BME280;22981;43.080;25.550;2023-04-01T02:09:39;98536.14;;;6.41;68.93
37066;BME280;22981;43.080;25.550;2023-04-01T02:12:09;98541.10;;;6.46;68.87
37066;BME280;22981;43.080;25.550;2023-04-01T02:14:52;98528.27;;;6.43;68.87
37066;BME280;22981;43.080;25.550;2023-04-01T02:17:21;98535.49;;;6.45;68.84
37066;BME280;22981;43.080;25.550;2023-04-01T02:20:04;98519.83;;;6.46;68.88
37066;BME280;22981;43.080;25.550;2023-04-01T02:22:37;98526.05;;;6.49;68.81
37066;BME280;22981;43.080;25.550;2023-04-01T02:25:17;98519.25;;;6.44;68.75
37066;BME280;22981;43.080;25.550;2023-04-01T02:27:45;98514.36;;;6.41;68.88
37066;BME280;22981;43.080;25.550;2023-04-01T02:30:15;98517.95;;;6.38;68.82
37066;BME280;22981;43.080;25.550;2023-04-01T02:32:44;98508.78;;;6.34;68.99
37066;BME280;22981;43.080;25.550;2023-04-01T02:35:14;98502.30;;;6.30;69.03
37066;BME280;22981;43.080;25.550;2023-04-01T02:37:42;98508.33;;;6.27;69.17
37066;BME280;22981;43.080;25.550;2023-04-01T02:40:14;98505.15;;;6.28;69.19
37066;BME280;22981;43.080;25.550;2023-04-01T02:42:42;98498.31;;;6.30;69.23
37066;BME280;22981;43.080;25.550;2023-04-01T02:45:10;98491.14;;;6.30;69.22
37066;BME280;22981;43.080;25.550;2023-04-01T02:47:38;98489.36;;;6.33;69.21
37066;BME280;22981;43.080;25.550;2023-04-01T02:50:07;98494.61;;;6.31;69.20
37066;BME280;22981;43.080;25.550;2023-04-01T02:52:35;98495.33;;;6.28;69.33
37066;BME280;22981;43.080;25.550;2023-04-01T02:55:03;98492.15;;;6.29;69.37
37066;BME280;22981;43.080;25.550;2023-04-01T02:57:31;98492.34;;;6.34;69.35
37066;BME280;22981;43.080;25.550;2023-04-01T02:59:59;98496.11;;;6.36;69.20
37066;BME280;22981;43.080;25.550;2023-04-01T03:02:26;98488.64;;;6.35;69.26
37066;BME280;22981;43.080;25.550;2023-04-01T03:04:54;98487.52;;;6.34;69.24
37066;BME280;22981;43.080;25.550;2023-04-01T03:07:21;98479.92;;;6.37;69.26
37066;BME280;22981;43.080;25.550;2023-04-01T03:09:49;98481.06;;;6.39;69.22
37066;BME280;22981;43.080;25.550;2023-04-01T03:12:17;98488.00;;;6.40;69.25
37066;BME280;22981;43.080;25.550;2023-04-01T03:14:44;98482.91;;;6.38;69.25
37066;BME280;22981;43.080;25.550;2023-04-01T03:17:12;98483.48;;;6.40;69.31
37066;BME280;22981;43.080;25.550;2023-04-01T03:19:39;98478.76;;;6.42;69.39
37066;BME280;22981;43.080;25.550;2023-04-01T03:22:07;98474.77;;;6.42;69.45
37066;BME280;22981;43.080;25.550;2023-04-01T03:24:36;98476.39;;;6.34;69.39
37066;BME280;22981;43.080;25.550;2023-04-01T03:27:03;98477.89;;;6.23;69.55
37066;BME280;22981;43.080;25.550;2023-04-01T03:29:31;98478.38;;;6.14;69.78
37066;BME280;22981;43.080;25.550;2023-04-01T03:31:59;98484.20;;;6.13;69.87
37066;BME280;22981;43.080;25.550;2023-04-01T03:34:26;98480.22;;;6.13;69.96
37066;BME280;22981;43.080;25.550;2023-04-01T03:36:54;98483.17;;;6.14;69.94
37066;BME280;22981;43.080;25.550;2023-04-01T03:39:21;98481.42;;;6.17;69.89
37066;BME280;22981;43.080;25.550;2023-04-01T03:41:49;98485.99;;;6.19;69.84
37066;BME280;22981;43.080;25.550;2023-04-01T03:44:16;98482.95;;;6.16;69.87
37066;BME280;22981;43.080;25.550;2023-04-01T03:46:44;98481.20;;;6.19;69.94
37066;BME280;22981;43.080;25.550;2023-04-01T03:49:11;98484.83;;;6.24;69.93
37066;BME280;22981;43.080;25.550;2023-04-01T03:51:42;98484.41;;;6.27;69.89
37066;BME280;22981;43.080;25.550;2023-04-01T03:54:11;98493.19;;;6.28;69.80
37066;BME280;22981;43.080;25.550;2023-04-01T03:56:38;98486.25;;;6.27;69.83
37066;BME280;22981;43.080;25.550;2023-04-01T03:59:07;98489.81;;;6.30;69.83
37066;BME280;22981;43.080;25.550;2023-04-01T04:01:35;98483.46;;;6.31;69.88
37066;BME280;22981;43.080;25.550;2023-04-01T04:04:03;98477.49;;;6.36;69.85
37066;BME280;22981;43.080;25.550;2023-04-01T04:06:30;98474.41;;;6.39;69.74
37066;BME280;22981;43.080;25.550;2023-04-01T04:08:58;98470.23;;;6.34;69.67
37066;BME280;22981;43.080;25.550;2023-04-01T04:11:26;98479.09;;;6.27;69.78
37066;BME280;22981;43.080;25.550;2023-04-01T04:13:53;98472.05;;;6.24;69.90
37066;BME280;22981;43.080;25.550;2023-04-01T04:16:21;98475.52;;;6.24;69.92
37066;BME280;22981;43.080;25.550;2023-04-01T04:18:48;98471.53;;;6.24;69.99
37066;BME280;22981;43.080;25.550;2023-04-01T04:21:17;98476.14;;;6.26;70.01
37066;BME280;22981;43.080;25.550;2023-04-01T04:23:44;98467.80;;;6.32;69.96
37066;BME280;22981;43.080;25.550;2023-04-01T04:26:14;98473.41;;;6.33;69.89
37066;BME280;22981;43.080;25.550;2023-04-01T04:28:42;98467.80;;;6.32;70.02
37066;BME280;22981;43.080;25.550;2023-04-01T04:31:09;98473.22;;;6.35;70.02
37066;BME280;22981;43.080;25.550;2023-04-01T04:33:37;98467.58;;;6.34;69.99
37066;BME280;22981;43.080;25.550;2023-04-01T04:36:05;98468.84;;;6.31;69.99
37066;BME280;22981;43.080;25.550;2023-04-01T04:38:32;98481.74;;;6.27;70.08
37066;BME280;22981;43.080;25.550;2023-04-01T04:41:00;98476.66;;;6.26;70.20
37066;BME280;22981;43.080;25.550;2023-04-01T04:43:28;98477.34;;;6.31;70.26
37066;BME280;22981;43.080;25.550;2023-04-01T04:45:55;98470.33;;;6.36;70.24
37066;BME280;22981;43.080;25.550;2023-04-01T04:48:23;98469.30;;;6.37;70.20
37066;BME280;22981;43.080;25.550;2023-04-01T04:50:51;98463.84;;;6.41;70.24
37066;BME280;22981;43.080;25.550;2023-04-01T04:53:19;98469.64;;;6.47;70.17
37066;BME280;22981;43.080;25.550;2023-04-01T04:55:48;98462.34;;;6.52;70.28
37066;BME280;22981;43.080;25.550;2023-04-01T04:58:16;98458.36;;;6.61;70.28
37066;BME280;22981;43.080;25.550;2023-04-01T05:00:45;98462.37;;;6.70;70.11
37066;BME280;22981;43.080;25.550;2023-04-01T05:03:13;98462.50;;;6.66;70.05
37066;BME280;22981;43.080;25.550;2023-04-01T05:05:47;98445.97;;;6.64;70.19
37066;BME280;22981;43.080;25.550;2023-04-01T05:08:11;98444.50;;;6.68;70.23
37066;BME280;22981;43.080;25.550;2023-04-01T05:10:39;98446.41;;;6.70;70.26
37066;BME280;22981;43.080;25.550;2023-04-01T05:13:07;98444.50;;;6.68;70.22
37066;BME280;22981;43.080;25.550;2023-04-01T05:15:35;98445.83;;;6.68;70.43
37066;BME280;22981;43.080;25.550;2023-04-01T05:18:03;98452.69;;;6.76;70.42
37066;BME280;22981;43.080;25.550;2023-04-01T05:20:31;98450.50;;;6.82;70.38
37066;BME280;22981;43.080;25.550;2023-04-01T05:22:59;98446.42;;;6.89;70.39
37066;BME280;22981;43.080;25.550;2023-04-01T05:25:27;98443.33;;;7.01;70.35
37066;BME280;22981;43.080;25.550;2023-04-01T05:27:55;98436.01;;;7.06;70.29
37066;BME280;22981;43.080;25.550;2023-04-01T05:30:22;98438.61;;;7.12;70.26
37066;BME280;22981;43.080;25.550;2023-04-01T05:32:50;98439.50;;;7.15;70.23
37066;BME280;22981;43.080;25.550;2023-04-01T05:35:17;98434.70;;;7.24;70.25
37066;BME280;22981;43.080;25.550;2023-04-01T05:37:45;98428.83;;;7.34;70.25
37066;BME280;22981;43.080;25.550;2023-04-01T05:40:12;98434.95;;;7.43;70.18
37066;BME280;22981;43.080;25.550;2023-04-01T05:42:40;98429.08;;;7.53;70.12
37066;BME280;22981;43.080;25.550;2023-04-01T05:45:08;98435.72;;;7.62;70.04
37066;BME280;22981;43.080;25.550;2023-04-01T05:47:36;98427.94;;;7.70;69.99
37066;BME280;22981;43.080;25.550;2023-04-01T05:50:03;98426.52;;;7.76;69.94
37066;BME280;22981;43.080;25.550;2023-04-01T05:52:31;98416.52;;;7.81;69.90
37066;BME280;22981;43.080;25.550;2023-04-01T05:54:59;98414.22;;;7.85;69.98
37066;BME280;22981;43.080;25.550;2023-04-01T05:57:26;98419.06;;;7.88;70.06
37066;BME280;22981;43.080;25.550;2023-04-01T05:59:54;98415.15;;;7.90;70.10
37066;BME280;22981;43.080;25.550;2023-04-01T06:02:22;98414.91;;;7.92;70.15
37066;BME280;22981;43.080;25.550;2023-04-01T06:04:49;98415.06;;;7.97;70.25
37066;BME280;22981;43.080;25.550;2023-04-01T06:07:18;98420.52;;;8.02;70.32
37066;BME280;22981;43.080;25.550;2023-04-01T06:09:46;98407.71;;;8.01;70.42
37066;BME280;22981;43.080;25.550;2023-04-01T06:18:11;98410.55;;;8.09;70.52
37066;BME280;22981;43.080;25.550;2023-04-01T06:20:53;98402.91;;;8.13;70.49
37066;BME280;22981;43.080;25.550;2023-04-01T06:31:50;98401.69;;;8.39;70.50
37066;BME280;22981;43.080;25.550;2023-04-01T06:39:59;98403.48;;;8.47;70.62
37066;BME280;22981;43.080;25.550;2023-04-01T06:45:30;98398.16;;;8.59;70.66
37066;BME280;22981;43.080;25.550;2023-04-01T06:53:54;98390.36;;;8.81;70.62
37066;BME280;22981;43.080;25.550;2023-04-01T06:56:21;98393.97;;;8.87;70.58
37066;BME280;22981;43.080;25.550;2023-04-01T06:58:53;98399.16;;;8.93;70.55
37066;BME280;22981;43.080;25.550;2023-04-01T07:01:40;98396.84;;;8.97;70.65
37066;BME280;22981;43.080;25.550;2023-04-01T07:04:20;98395.95;;;9.06;70.71
37066;BME280;22981;43.080;25.550;2023-04-01T07:06:56;98398.19;;;9.11;70.68
37066;BME280;22981;43.080;25.550;2023-04-01T07:09:41;98394.06;;;9.18;70.75
37066;BME280;22981;43.080;25.550;2023-04-01T07:12:17;98393.36;;;9.22;70.83
37066;BME280;22981;43.080;25.550;2023-04-01T07:14:45;98391.38;;;9.30;70.81
37066;BME280;22981;43.080;25.550;2023-04-01T07:17:22;98383.48;;;9.37;70.97
37066;BME280;22981;43.080;25.550;2023-04-01T07:22:32;98376.94;;;9.59;71.11
37066;BME280;22981;43.080;25.550;2023-04-01T07:25:18;98377.86;;;9.65;71.25
37066;BME280;22981;43.080;25.550;2023-04-01T07:27:47;98380.34;;;9.69;71.21
37066;BME280;22981;43.080;25.550;2023-04-01T07:30:16;98388.91;;;9.71;71.29
37066;BME280;22981;43.080;25.550;2023-04-01T07:33:10;98376.42;;;9.74;71.32
37066;BME280;22981;43.080;25.550;2023-04-01T07:35:38;98358.38;;;9.81;71.36
37066;BME280;22981;43.080;25.550;2023-04-01T07:40:57;98339.50;;;10.04;71.62
37066;BME280;22981;43.080;25.550;2023-04-01T07:46:42;98337.38;;;10.40;71.41
37066;BME280;22981;43.080;25.550;2023-04-01T07:49:21;98339.33;;;10.64;71.16
37066;BME280;22981;43.080;25.550;2023-04-01T07:51:55;98331.52;;;10.82;71.01
37066;BME280;22981;43.080;25.550;2023-04-01T07:57:21;98306.42;;;11.10;70.69
37066;BME280;22981;43.080;25.550;2023-04-01T07:59:59;98280.89;;;11.29;70.54
37066;BME280;22981;43.080;25.550;2023-04-01T08:02:48;98263.75;;;11.60;70.20
37066;BME280;22981;43.080;25.550;2023-04-01T08:11:13;98271.70;;;12.64;68.82
37066;BME280;22981;43.080;25.550;2023-04-01T08:21:47;98263.63;;;13.55;67.80
37066;BME280;22981;43.080;25.550;2023-04-01T08:24:27;98265.77;;;13.73;67.40
37066;BME280;22981;43.080;25.550;2023-04-01T08:26:57;98268.19;;;13.90;67.09
37066;BME280;22981;43.080;25.550;2023-04-01T08:29:41;98267.62;;;14.09;66.51
37066;BME280;22981;43.080;25.550;2023-04-01T08:32:20;98274.03;;;14.38;65.83
37066;BME280;22981;43.080;25.550;2023-04-01T08:34:51;98258.11;;;14.62;64.53
37066;BME280;22981;43.080;25.550;2023-04-01T08:37:21;98254.22;;;14.91;63.13
37066;BME280;22981;43.080;25.550;2023-04-01T08:39:50;98254.88;;;15.15;61.83
37066;BME280;22981;43.080;25.550;2023-04-01T08:42:47;98251.27;;;15.35;60.71
37066;BME280;22981;43.080;25.550;2023-04-01T08:48:27;98233.55;;;15.60;58.69
37066;BME280;22981;43.080;25.550;2023-04-01T09:07:42;98215.55;;;16.59;54.62
37066;BME280;22981;43.080;25.550;2023-04-01T09:13:07;98221.31;;;16.76;53.05
37066;BME280;22981;43.080;25.550;2023-04-01T09:15:42;98211.51;;;16.83;52.91
37066;BME280;22981;43.080;25.550;2023-04-01T09:18:36;98209.16;;;16.95;52.45
37066;BME280;22981;43.080;25.550;2023-04-01T09:32:33;98177.19;;;18.00;50.62
37066;BME280;22981;43.080;25.550;2023-04-01T09:40:46;98164.69;;;19.18;46.09
37066;BME280;22981;43.080;25.550;2023-04-01T09:43:29;98160.70;;;19.61;44.79
37066;BME280;22981;43.080;25.550;2023-04-01T09:46:11;98157.59;;;19.87;44.23
37066;BME280;22981;43.080;25.550;2023-04-01T09:51:37;98165.73;;;20.27;43.42
37066;BME280;22981;43.080;25.550;2023-04-01T09:54:10;98165.97;;;20.28;43.25
37066;BME280;22981;43.080;25.550;2023-04-01T09:59:21;98151.06;;;19.55;43.25
37066;BME280;22981;43.080;25.550;2023-04-01T10:38:31;98100.00;;;18.14;45.43
37066;BME280;22981;43.080;25.550;2023-04-01T10:41:21;98093.03;;;18.24;44.83
37066;BME280;22981;43.080;25.550;2023-04-01T10:51:58;98057.06;;;18.58;44.44
37066;BME280;22981;43.080;25.550;2023-04-01T10:54:49;98048.38;;;18.72;44.18
37066;BME280;22981;43.080;25.550;2023-04-01T10:57:36;98045.41;;;19.05;43.50
37066;BME280;22981;43.080;25.550;2023-04-01T11:00:25;98041.70;;;19.43;42.69
37066;BME280;22981;43.080;25.550;2023-04-01T11:08:32;98028.02;;;20.34;41.62
37066;BME280;22981;43.080;25.550;2023-04-01T11:19:56;98025.84;;;21.03;39.65
37066;BME280;22981;43.080;25.550;2023-04-01T11:28:27;97992.55;;;21.61;37.13
37066;BME280;22981;43.080;25.550;2023-04-01T11:33:57;97989.05;;;21.75;36.33
37066;BME280;22981;43.080;25.550;2023-04-01T11:39:15;97988.28;;;21.81;35.53
37066;BME280;22981;43.080;25.550;2023-04-01T11:41:47;97988.80;;;21.89;36.08
37066;BME280;22981;43.080;25.550;2023-04-01T11:44:17;97990.25;;;22.02;35.17
37066;BME280;22981;43.080;25.550;2023-04-01T12:00:31;97951.07;;;22.36;34.15
37066;BME280;22981;43.080;25.550;2023-04-01T12:05:58;97948.13;;;22.41;34.01
37066;BME280;22981;43.080;25.550;2023-04-01T12:09:01;97939.12;;;22.34;33.75
37066;BME280;22981;43.080;25.550;2023-04-01T12:11:37;97936.87;;;22.36;33.69
37066;BME280;22981;43.080;25.550;2023-04-01T12:14:08;97940.25;;;22.33;33.72
37066;BME280;22981;43.080;25.550;2023-04-01T12:19:19;97932.72;;;22.24;34.33
37066;BME280;22981;43.080;25.550;2023-04-01T12:44:16;97895.50;;;22.67;36.30
37066;BME280;22981;43.080;25.550;2023-04-01T12:47:00;97892.25;;;22.47;36.38
37066;BME280;22981;43.080;25.550;2023-04-01T12:52:05;97879.31;;;22.50;36.23
37066;BME280;22981;43.080;25.550;2023-04-01T12:57:57;97881.50;;;22.69;37.15
37066;BME280;22981;43.080;25.550;2023-04-01T13:11:44;97914.48;;;21.21;39.64
37066;BME280;22981;43.080;25.550;2023-04-01T13:19:52;97904.53;;;19.94;41.54
37066;BME280;22981;43.080;25.550;2023-04-01T13:22:41;97906.75;;;19.66;42.05
37066;BME280;22981;43.080;25.550;2023-04-01T13:25:10;97891.32;;;19.44;42.57
37066;BME280;22981;43.080;25.550;2023-04-01T13:27:40;97892.55;;;19.20;42.97
37066;BME280;22981;43.080;25.550;2023-04-01T13:30:22;97901.56;;;18.98;43.16
37066;BME280;22981;43.080;25.550;2023-04-01T13:35:35;97882.77;;;18.60;43.95
37066;BME280;22981;43.080;25.550;2023-04-01T13:43:39;97885.00;;;18.13;44.93
37066;BME280;22981;43.080;25.550;2023-04-01T13:46:33;97874.96;;;17.91;45.23
37066;BME280;22981;43.080;25.550;2023-04-01T13:49:11;97882.30;;;17.76;45.58
37066;BME280;22981;43.080;25.550;2023-04-01T13:57:21;97894.08;;;17.44;46.58
37066;BME280;22981;43.080;25.550;2023-04-01T14:02:47;97898.16;;;17.31;47.62
37066;BME280;22981;43.080;25.550;2023-04-01T14:10:57;97896.54;;;17.02;49.23
37066;BME280;22981;43.080;25.550;2023-04-01T14:27:18;97885.64;;;16.44;51.64
37066;BME280;22981;43.080;25.550;2023-04-01T14:41:47;97948.00;;;15.94;52.72
37066;BME280;22981;43.080;25.550;2023-04-01T14:49:51;98025.27;;;15.63;53.75
37066;BME280;22981;43.080;25.550;2023-04-01T14:54:52;98079.17;;;15.42;54.29
37066;BME280;22981;43.080;25.550;2023-04-01T14:57:28;98091.92;;;15.31;54.81
37066;BME280;22981;43.080;25.550;2023-04-01T15:00:21;98111.45;;;15.18;56.53
37066;BME280;22981;43.080;25.550;2023-04-01T15:03:08;98132.66;;;14.95;58.52
37066;BME280;22981;43.080;25.550;2023-04-01T15:05:51;98147.97;;;14.58;61.45
37066;BME280;22981;43.080;25.550;2023-04-01T15:08:26;98163.46;;;14.22;63.41
37066;BME280;22981;43.080;25.550;2023-04-01T15:14:10;98193.67;;;13.83;66.11
37066;BME280;22981;43.080;25.550;2023-04-01T15:19:28;98213.60;;;13.44;67.36
37066;BME280;22981;43.080;25.550;2023-04-01T15:25:00;98217.04;;;13.14;68.55
37066;BME280;22981;43.080;25.550;2023-04-01T15:27:44;98217.56;;;13.06;68.91
37066;BME280;22981;43.080;25.550;2023-04-01T15:33:06;98197.67;;;12.96;69.42
37066;BME280;22981;43.080;25.550;2023-04-01T15:38:37;98146.11;;;12.99;69.55
37066;BME280;22981;43.080;25.550;2023-04-01T15:41:15;98135.88;;;13.01;69.56
37066;BME280;22981;43.080;25.550;2023-04-01T15:43:50;98111.45;;;13.03;69.64
37066;BME280;22981;43.080;25.550;2023-04-01T15:49:22;98089.14;;;13.13;69.88
37066;BME280;22981;43.080;25.550;2023-04-01T15:52:02;98081.34;;;13.19;69.75
37066;BME280;22981;43.080;25.550;2023-04-01T16:05:55;98069.81;;;13.26;69.93
37066;BME280;22981;43.080;25.550;2023-04-01T16:13:55;98091.02;;;13.17;70.62
37066;BME280;22981;43.080;25.550;2023-04-01T16:30:35;98173.96;;;12.60;72.30
37066;BME280;22981;43.080;25.550;2023-04-01T16:33:11;98168.58;;;12.55;72.41
37066;BME280;22981;43.080;25.550;2023-04-01T16:35:46;98165.63;;;12.62;72.39
37066;BME280;22981;43.080;25.550;2023-04-01T16:43:53;98182.81;;;12.63;72.55
37066;BME280;22981;43.080;25.550;2023-04-01T16:46:33;98185.50;;;12.61;72.57
37066;BME280;22981;43.080;25.550;2023-04-01T16:51:52;98203.76;;;12.61;72.49
37066;BME280;22981;43.080;25.550;2023-04-01T16:57:02;98211.01;;;12.61;72.52
37066;BME280;22981;43.080;25.550;2023-04-01T17:02:43;98198.12;;;12.60;72.70
37066;BME280;22981;43.080;25.550;2023-04-01T17:10:38;98205.34;;;12.52;72.56
37066;BME280;22981;43.080;25.550;2023-04-01T17:13:29;98204.27;;;12.53;72.45
37066;BME280;22981;43.080;25.550;2023-04-01T17:19:25;98196.20;;;12.48;72.54
37066;BME280;22981;43.080;25.550;2023-04-01T17:33:38;98189.67;;;12.26;72.84
37066;BME280;22981;43.080;25.550;2023-04-01T17:41:48;98208.63;;;12.09;73.51
37066;BME280;22981;43.080;25.550;2023-04-01T17:50:19;98208.23;;;11.90;73.72
37066;BME280;22981;43.080;25.550;2023-04-01T17:53:09;98211.42;;;11.85;73.82
37066;BME280;22981;43.080;25.550;2023-04-01T17:58:21;98217.50;;;11.75;74.09
37066;BME280;22981;43.080;25.550;2023-04-01T18:00:51;98223.38;;;11.72;74.23
37066;BME280;22981;43.080;25.550;2023-04-01T18:06:04;98238.92;;;11.70;74.43
37066;BME280;22981;43.080;25.550;2023-04-01T18:08:45;98244.02;;;11.71;74.46
37066;BME280;22981;43.080;25.550;2023-04-01T18:11:33;98242.14;;;11.72;74.61
37066;BME280;22981;43.080;25.550;2023-04-01T18:17:15;98263.31;;;11.71;74.92
37066;BME280;22981;43.080;25.550;2023-04-01T18:22:29;98292.04;;;11.75;74.87
37066;BME280;22981;43.080;25.550;2023-04-01T18:25:06;98290.62;;;11.65;75.20
37066;BME280;22981;43.080;25.550;2023-04-01T18:43:30;98354.53;;;11.51;75.97
37066;BME280;22981;43.080;25.550;2023-04-01T18:46:16;98359.89;;;11.51;75.89
37066;BME280;22981;43.080;25.550;2023-04-01T18:51:20;98353.77;;;11.53;75.61
37066;BME280;22981;43.080;25.550;2023-04-01T18:54:11;98348.98;;;11.58;75.49
37066;BME280;22981;43.080;25.550;2023-04-01T18:56:41;98349.26;;;11.59;75.45
37066;BME280;22981;43.080;25.550;2023-04-01T18:59:28;98344.47;;;11.61;75.37
37066;BME280;22981;43.080;25.550;2023-04-01T19:07:50;98342.91;;;11.68;75.35
37066;BME280;22981;43.080;25.550;2023-04-01T19:10:43;98347.19;;;11.66;75.31
37066;BME280;22981;43.080;25.550;2023-04-01T19:19:38;98351.98;;;11.64;75.42
37066;BME280;22981;43.080;25.550;2023-04-01T19:27:34;98365.11;;;11.63;75.53
37066;BME280;22981;43.080;25.550;2023-04-01T19:35:43;98379.02;;;11.60;75.64
37066;BME280;22981;43.080;25.550;2023-04-01T19:38:25;98382.77;;;11.59;75.72
37066;BME280;22981;43.080;25.550;2023-04-01T19:40:58;98383.88;;;11.61;75.71
37066;BME280;22981;43.080;25.550;2023-04-01T19:46:33;98386.02;;;11.61;75.78
37066;BME280;22981;43.080;25.550;2023-04-01T19:49:24;98398.62;;;11.61;75.75
37066;BME280;22981;43.080;25.550;2023-04-01T19:52:00;98396.17;;;11.59;75.83
37066;BME280;22981;43.080;25.550;2023-04-01T20:00:22;98406.88;;;11.57;76.00
37066;BME280;22981;43.080;25.550;2023-04-01T20:08:11;98418.63;;;11.53;75.99
37066;BME280;22981;43.080;25.550;2023-04-01T20:13:27;98418.59;;;11.50;76.14
37066;BME280;22981;43.080;25.550;2023-04-01T20:16:01;98415.36;;;11.48;76.22
37066;BME280;22981;43.080;25.550;2023-04-01T20:26:38;98428.79;;;11.29;76.00
37066;BME280;22981;43.080;25.550;2023-04-01T20:35:02;98439.02;;;11.13;74.99
37066;BME280;22981;43.080;25.550;2023-04-01T20:40:24;98447.00;;;11.08;74.38
37066;BME280;22981;43.080;25.550;2023-04-01T20:43:07;98452.03;;;11.04;74.14
37066;BME280;22981;43.080;25.550;2023-04-01T20:45:34;98448.97;;;10.95;73.86
37066;BME280;22981;43.080;25.550;2023-04-01T20:51:10;98453.66;;;10.86;73.63
37066;BME280;22981;43.080;25.550;2023-04-01T20:56:36;98447.66;;;10.78;73.39
37066;BME280;22981;43.080;25.550;2023-04-01T21:02:12;98447.57;;;10.71;73.26
37066;BME280;22981;43.080;25.550;2023-04-01T21:07:37;98449.55;;;10.61;73.25
37066;BME280;22981;43.080;25.550;2023-04-01T21:32:19;98470.02;;;10.22;72.88
37066;BME280;22981;43.080;25.550;2023-04-01T21:37:36;98473.14;;;10.16;72.60
37066;BME280;22981;43.080;25.550;2023-04-01T21:48:30;98475.72;;;9.97;73.30
37066;BME280;22981;43.080;25.550;2023-04-01T22:05:16;98472.28;;;10.13;72.08
37066;BME280;22981;43.080;25.550;2023-04-01T22:13:04;98482.13;;;9.96;72.69
37066;BME280;22981;43.080;25.550;2023-04-01T22:15:52;98481.17;;;9.88;72.92
37066;BME280;22981;43.080;25.550;2023-04-01T22:19:04;98489.16;;;9.85;73.03
37066;BME280;22981;43.080;25.550;2023-04-01T22:20:57;98498.80;;;9.86;73.10
37066;BME280;22981;43.080;25.550;2023-04-01T22:26:15;98507.87;;;9.85;73.39
37066;BME280;22981;43.080;25.550;2023-04-01T22:31:38;98516.36;;;9.82;73.80
37066;BME280;22981;43.080;25.550;2023-04-01T22:42:26;98517.30;;;9.76;74.07
37066;BME280;22981;43.080;25.550;2023-04-01T22:50:17;98517.42;;;9.81;74.34
37066;BME280;22981;43.080;25.550;2023-04-01T22:52:47;98515.03;;;9.82;74.51
37066;BME280;22981;43.080;25.550;2023-04-01T22:55:30;98515.37;;;9.86;74.59
37066;BME280;22981;43.080;25.550;2023-04-01T22:58:07;98510.58;;;9.88;74.65
37066;BME280;22981;43.080;25.550;2023-04-01T23:00:41;98502.09;;;9.91;74.78